sensor_id;sensor_type;location;lat;lon;timestamp;temperature;humidity
22491;DHT22;11412;50.802;4.350;2023-03-11T00:00:27;2.10;99.90
22491;DHT22;11412;50.802;4.350;2023-03-11T00:02:59;2.00;99.90
22491;DHT22;11412;50.802;4.350;2023-03-11T00:05:30;1.90;99.90
22491;DHT22;11412;50.802;4.350;2023-03-11T00:07:55;1.90;99.90
22491;DHT22;11412;50.802;4.350;2023-03-11T00:10:27;1.80;99.90
22491;DHT22;11412;50.802;4.350;2023-03-11T00:12:54;1.70;99.90
22491;DHT22;11412;50.802;4.350;2023-03-11T00:15:19;1.60;99.90
22491;DHT22;11412;50.802;4.350;2023-03-11T00:17:47;1.60;99.90
22491;DHT22;11412;50.802;4.350;2023-03-11T00:20:19;1.50;99.90
22491;DHT22;11412;50.802;4.350;2023-03-11T00:22:45;1.60;99.90
22491;DHT22;11412;50.802;4.350;2023-03-11T00:25:11;1.60;99.90
22491;DHT22;11412;50.802;4.350;2023-03-11T00:27:37;1.50;99.90
22491;DHT22;11412;50.802;4.350;2023-03-11T00:30:03;1.50;99.90
22491;DHT22;11412;50.802;4.350;2023-03-11T00:32:29;1.50;99.90
22491;DHT22;11412;50.802;4.350;2023-03-11T00:34:55;1.50;99.90
22491;DHT22;11412;50.802;4.350;2023-03-11T00:37:21;1.50;99.90
22491;DHT22;11412;50.802;4.350;2023-03-11T00:39:46;1.50;99.90
22491;DHT22;11412;50.802;4.350;2023-03-11T00:42:12;1.60;99.90
22491;DHT22;11412;50.802;4.350;2023-03-11T00:44:37;1.70;99.90
22491;DHT22;11412;50.802;4.350;2023-03-11T00:47:03;1.80;99.90
22491;DHT22;11412;50.802;4.350;2023-03-11T00:49:29;1.70;99.90
22491;DHT22;11412;50.802;4.350;2023-03-11T00:51:54;1.70;99.90
22491;DHT22;11412;50.802;4.350;2023-03-11T00:54:20;1.70;99.90
22491;DHT22;11412;50.802;4.350;2023-03-11T00:56:46;1.60;99.90
22491;DHT22;11412;50.802;4.350;2023-03-11T00:59:11;1.60;99.90
22491;DHT22;11412;50.802;4.350;2023-03-11T01:01:37;1.60;99.90
22491;DHT22;11412;50.802;4.350;2023-03-11T01:04:03;1.60;99.90
22491;DHT22;11412;50.802;4.350;2023-03-11T01:06:28;1.50;99.90
22491;DHT22;11412;50.802;4.350;2023-03-11T01:08:54;1.50;99.90
22491;DHT22;11412;50.802;4.350;2023-03-11T01:11:19;1.50;99.90
22491;DHT22;11412;50.802;4.350;2023-03-11T01:13:45;1.50;99.90
22491;DHT22;11412;50.802;4.350;2023-03-11T01:16:11;1.50;99.90
22491;DHT22;11412;50.802;4.350;2023-03-11T01:18:37;1.40;99.90
22491;DHT22;11412;50.802;4.350;2023-03-11T01:21:02;1.40;99.90
22491;DHT22;11412;50.802;4.350;2023-03-11T01:23:28;1.50;99.90
22491;DHT22;11412;50.802;4.350;2023-03-11T01:25:54;1.40;99.90
22491;DHT22;11412;50.802;4.350;2023-03-11T01:28:20;1.30;99.90
22491;DHT22;11412;50.802;4.350;2023-03-11T01:30:45;1.30;99.90
22491;DHT22;11412;50.802;4.350;2023-03-11T01:33:17;1.40;99.90
22491;DHT22;11412;50.802;4.350;2023-03-11T01:35:44;1.30;99.90
22491;DHT22;11412;50.802;4.350;2023-03-11T01:38:11;1.20;99.90
22491;DHT22;11412;50.802;4.350;2023-03-11T01:40:42;1.20;99.90
22491;DHT22;11412;50.802;4.350;2023-03-11T01:48:59;1.20;99.90
22491;DHT22;11412;50.802;4.350;2023-03-11T01:51:42;1.30;99.90
22491;DHT22;11412;50.802;4.350;2023-03-11T01:54:12;1.30;99.90
22491;DHT22;11412;50.802;4.350;2023-03-11T01:56:40;1.40;99.90
22491;DHT22;11412;50.802;4.350;2023-03-11T01:59:08;1.40;99.90
22491;DHT22;11412;50.802;4.350;2023-03-11T02:01:37;1.40;99.90
22491;DHT22;11412;50.802;4.350;2023-03-11T02:04:06;1.40;99.90
22491;DHT22;11412;50.802;4.350;2023-03-11T02:06:32;1.40;99.90
22491;DHT22;11412;50.802;4.350;2023-03-11T02:08:59;1.30;99.90
22491;DHT22;11412;50.802;4.350;2023-03-11T02:11:28;1.40;99.90
22491;DHT22;11412;50.802;4.350;2023-03-11T02:13:58;1.50;99.90
22491;DHT22;11412;50.802;4.350;2023-03-11T02:16:25;1.50;99.90
22491;DHT22;11412;50.802;4.350;2023-03-11T02:18:50;1.50;99.90
22491;DHT22;11412;50.802;4.350;2023-03-11T02:21:23;1.60;99.90
22491;DHT22;11412;50.802;4.350;2023-03-11T02:29:06;1.50;99.90
22491;DHT22;11412;50.802;4.350;2023-03-11T02:31:36;1.50;99.90
22491;DHT22;11412;50.802;4.350;2023-03-11T02:34:03;1.50;99.90
22491;DHT22;11412;50.802;4.350;2023-03-11T02:36:32;1.50;99.90
22491;DHT22;11412;50.802;4.350;2023-03-11T02:38:58;1.50;99.90
22491;DHT22;11412;50.802;4.350;2023-03-11T02:41:24;1.50;99.90
22491;DHT22;11412;50.802;4.350;2023-03-11T02:43:50;1.50;99.90
22491;DHT22;11412;50.802;4.350;2023-03-11T02:46:17;1.40;99.90
22491;DHT22;11412;50.802;4.350;2023-03-11T02:48:43;1.40;99.90
22491;DHT22;11412;50.802;4.350;2023-03-11T02:51:09;1.50;99.90
22491;DHT22;11412;50.802;4.350;2023-03-11T02:53:39;1.50;99.90
22491;DHT22;11412;50.802;4.350;2023-03-11T02:56:06;1.50;99.90
22491;DHT22;11412;50.802;4.350;2023-03-11T02:58:32;1.50;99.90
22491;DHT22;11412;50.802;4.350;2023-03-11T03:00:57;1.40;99.90
22491;DHT22;11412;50.802;4.350;2023-03-11T03:03:23;1.60;99.90
22491;DHT22;11412;50.802;4.350;2023-03-11T03:05:49;1.60;99.90
22491;DHT22;11412;50.802;4.350;2023-03-11T03:08:15;1.60;99.90
22491;DHT22;11412;50.802;4.350;2023-03-11T03:10:41;1.60;99.90
22491;DHT22;11412;50.802;4.350;2023-03-11T03:13:06;1.60;99.90
22491;DHT22;11412;50.802;4.350;2023-03-11T03:15:32;1.70;99.90
22491;DHT22;11412;50.802;4.350;2023-03-11T03:17:58;1.70;99.90
22491;DHT22;11412;50.802;4.350;2023-03-11T03:20:23;1.70;99.90
22491;DHT22;11412;50.802;4.350;2023-03-11T03:22:51;1.70;99.90
22491;DHT22;11412;50.802;4.350;2023-03-11T03:25:17;1.90;99.90
22491;DHT22;11412;50.802;4.350;2023-03-11T03:27:42;1.90;99.90
22491;DHT22;11412;50.802;4.350;2023-03-11T03:30:09;1.70;99.90
22491;DHT22;11412;50.802;4.350;2023-03-11T03:32:35;1.90;99.90
22491;DHT22;11412;50.802;4.350;2023-03-11T03:35:02;1.80;99.90
22491;DHT22;11412;50.802;4.350;2023-03-11T03:37:30;1.80;99.90
22491;DHT22;11412;50.802;4.350;2023-03-11T03:39:56;1.70;99.90
22491;DHT22;11412;50.802;4.350;2023-03-11T03:42:22;1.70;99.90
22491;DHT22;11412;50.802;4.350;2023-03-11T03:44:50;1.90;99.90
22491;DHT22;11412;50.802;4.350;2023-03-11T03:47:18;1.90;99.90
22491;DHT22;11412;50.802;4.350;2023-03-11T03:49:44;1.80;99.90
22491;DHT22;11412;50.802;4.350;2023-03-11T03:52:09;1.90;99.90
22491;DHT22;11412;50.802;4.350;2023-03-11T03:54:36;1.90;99.90
22491;DHT22;11412;50.802;4.350;2023-03-11T03:57:02;1.80;99.90
22491;DHT22;11412;50.802;4.350;2023-03-11T03:59:28;1.70;99.90
22491;DHT22;11412;50.802;4.350;2023-03-11T04:01:54;1.70;99.90
22491;DHT22;11412;50.802;4.350;2023-03-11T04:04:20;1.80;99.90
22491;DHT22;11412;50.802;4.350;2023-03-11T04:06:45;1.80;99.90
22491;DHT22;11412;50.802;4.350;2023-03-11T04:09:11;1.80;99.90
22491;DHT22;11412;50.802;4.350;2023-03-11T04:11:37;1.80;99.90
22491;DHT22;11412;50.802;4.350;2023-03-11T04:14:04;1.80;99.90
22491;DHT22;11412;50.802;4.350;2023-03-11T04:16:30;1.70;99.90
22491;DHT22;11412;50.802;4.350;2023-03-11T04:18:55;1.70;99.90
22491;DHT22;11412;50.802;4.350;2023-03-11T04:21:21;1.50;99.90
22491;DHT22;11412;50.802;4.350;2023-03-11T04:23:47;1.50;99.90
22491;DHT22;11412;50.802;4.350;2023-03-11T04:26:13;1.50;99.90
22491;DHT22;11412;50.802;4.350;2023-03-11T04:28:38;1.40;99.90
22491;DHT22;11412;50.802;4.350;2023-03-11T04:31:04;1.30;99.90
22491;DHT22;11412;50.802;4.350;2023-03-11T04:33:30;1.30;99.90
22491;DHT22;11412;50.802;4.350;2023-03-11T04:35:56;1.20;99.90
22491;DHT22;11412;50.802;4.350;2023-03-11T04:38:22;1.20;99.90
22491;DHT22;11412;50.802;4.350;2023-03-11T04:40:47;1.30;99.90
22491;DHT22;11412;50.802;4.350;2023-03-11T04:43:13;1.20;99.90
22491;DHT22;11412;50.802;4.350;2023-03-11T04:45:39;1.30;99.90
22491;DHT22;11412;50.802;4.350;2023-03-11T04:48:05;1.10;99.90
22491;DHT22;11412;50.802;4.350;2023-03-11T04:50:30;1.10;99.90
22491;DHT22;11412;50.802;4.350;2023-03-11T04:52:56;1.10;99.90
22491;DHT22;11412;50.802;4.350;2023-03-11T04:55:22;1.00;99.90
22491;DHT22;11412;50.802;4.350;2023-03-11T04:57:47;1.10;99.90
22491;DHT22;11412;50.802;4.350;2023-03-11T05:00:14;1.00;99.90
22491;DHT22;11412;50.802;4.350;2023-03-11T05:02:40;1.10;99.90
22491;DHT22;11412;50.802;4.350;2023-03-11T05:05:07;0.90;99.90
22491;DHT22;11412;50.802;4.350;2023-03-11T05:07:34;0.90;99.90
22491;DHT22;11412;50.802;4.350;2023-03-11T05:10:01;0.90;99.90
22491;DHT22;11412;50.802;4.350;2023-03-11T05:12:26;0.80;99.90
22491;DHT22;11412;50.802;4.350;2023-03-11T05:14:52;0.90;99.90
22491;DHT22;11412;50.802;4.350;2023-03-11T05:17:18;0.90;99.90
22491;DHT22;11412;50.802;4.350;2023-03-11T05:19:44;0.80;99.90
22491;DHT22;11412;50.802;4.350;2023-03-11T05:22:10;0.80;99.90
22491;DHT22;11412;50.802;4.350;2023-03-11T05:24:35;0.80;99.90
22491;DHT22;11412;50.802;4.350;2023-03-11T05:27:02;0.90;99.90
22491;DHT22;11412;50.802;4.350;2023-03-11T05:29:27;0.90;99.90
22491;DHT22;11412;50.802;4.350;2023-03-11T05:31:53;0.80;99.90
22491;DHT22;11412;50.802;4.350;2023-03-11T05:34:19;0.80;99.90
22491;DHT22;11412;50.802;4.350;2023-03-11T05:36:45;0.80;99.90
22491;DHT22;11412;50.802;4.350;2023-03-11T05:39:11;0.80;99.90
22491;DHT22;11412;50.802;4.350;2023-03-11T05:41:37;0.70;99.90
22491;DHT22;11412;50.802;4.350;2023-03-11T05:44:03;0.80;99.90
22491;DHT22;11412;50.802;4.350;2023-03-11T05:46:29;0.70;99.90
22491;DHT22;11412;50.802;4.350;2023-03-11T05:48:55;0.80;99.90
22491;DHT22;11412;50.802;4.350;2023-03-11T05:51:21;0.80;99.90
22491;DHT22;11412;50.802;4.350;2023-03-11T05:53:47;0.80;99.90
22491;DHT22;11412;50.802;4.350;2023-03-11T05:56:18;0.80;99.90
22491;DHT22;11412;50.802;4.350;2023-03-11T05:58:45;0.80;99.90
22491;DHT22;11412;50.802;4.350;2023-03-11T06:01:13;0.80;99.90
22491;DHT22;11412;50.802;4.350;2023-03-11T06:03:39;0.90;99.90
22491;DHT22;11412;50.802;4.350;2023-03-11T06:06:06;0.90;99.90
22491;DHT22;11412;50.802;4.350;2023-03-11T06:08:33;0.80;99.90
22491;DHT22;11412;50.802;4.350;2023-03-11T06:11:04;0.60;99.90
22491;DHT22;11412;50.802;4.350;2023-03-11T06:13:30;0.60;99.90
22491;DHT22;11412;50.802;4.350;2023-03-11T06:15:56;0.80;99.90
22491;DHT22;11412;50.802;4.350;2023-03-11T06:18:21;0.80;99.90
22491;DHT22;11412;50.802;4.350;2023-03-11T06:20:47;0.90;99.90
22491;DHT22;11412;50.802;4.350;2023-03-11T06:23:13;0.80;99.90
22491;DHT22;11412;50.802;4.350;2023-03-11T06:25:38;0.90;99.90
22491;DHT22;11412;50.802;4.350;2023-03-11T06:28:04;0.80;99.90
22491;DHT22;11412;50.802;4.350;2023-03-11T06:30:30;0.70;99.90
22491;DHT22;11412;50.802;4.350;2023-03-11T06:32:55;0.90;99.90
22491;DHT22;11412;50.802;4.350;2023-03-11T06:35:21;0.80;99.90
22491;DHT22;11412;50.802;4.350;2023-03-11T06:37:47;0.70;99.90
22491;DHT22;11412;50.802;4.350;2023-03-11T06:40:13;0.60;99.90
22491;DHT22;11412;50.802;4.350;2023-03-11T06:42:38;0.60;99.90
22491;DHT22;11412;50.802;4.350;2023-03-11T06:45:05;0.70;99.90
22491;DHT22;11412;50.802;4.350;2023-03-11T06:47:30;0.60;99.90
22491;DHT22;11412;50.802;4.350;2023-03-11T06:49:56;0.70;99.90
22491;DHT22;11412;50.802;4.350;2023-03-11T06:52:22;0.70;99.90
22491;DHT22;11412;50.802;4.350;2023-03-11T06:54:47;0.60;99.90
22491;DHT22;11412;50.802;4.350;2023-03-11T06:57:13;0.60;99.90
22491;DHT22;11412;50.802;4.350;2023-03-11T06:59:38;0.60;99.90
22491;DHT22;11412;50.802;4.350;2023-03-11T07:02:05;0.80;99.90
22491;DHT22;11412;50.802;4.350;2023-03-11T07:04:31;0.90;99.90
22491;DHT22;11412;50.802;4.350;2023-03-11T07:06:57;0.90;99.90
22491;DHT22;11412;50.802;4.350;2023-03-11T07:09:23;1.00;99.90
22491;DHT22;11412;50.802;4.350;2023-03-11T07:11:51;1.10;99.90
22491;DHT22;11412;50.802;4.350;2023-03-11T07:14:17;1.20;99.90
22491;DHT22;11412;50.802;4.350;2023-03-11T07:16:43;1.20;99.90
22491;DHT22;11412;50.802;4.350;2023-03-11T07:19:10;1.10;99.90
22491;DHT22;11412;50.802;4.350;2023-03-11T07:21:36;1.20;99.90
22491;DHT22;11412;50.802;4.350;2023-03-11T07:24:02;1.20;99.90
22491;DHT22;11412;50.802;4.350;2023-03-11T07:26:30;1.40;99.90
22491;DHT22;11412;50.802;4.350;2023-03-11T07:28:56;1.50;99.90
22491;DHT22;11412;50.802;4.350;2023-03-11T07:31:27;1.60;99.90
22491;DHT22;11412;50.802;4.350;2023-03-11T07:33:56;1.60;99.90
22491;DHT22;11412;50.802;4.350;2023-03-11T07:36:24;1.60;99.90
22491;DHT22;11412;50.802;4.350;2023-03-11T07:39:04;1.60;99.90
22491;DHT22;11412;50.802;4.350;2023-03-11T07:41:34;1.60;99.90
22491;DHT22;11412;50.802;4.350;2023-03-11T07:44:02;1.80;99.90
22491;DHT22;11412;50.802;4.350;2023-03-11T07:46:29;1.90;99.90
22491;DHT22;11412;50.802;4.350;2023-03-11T07:48:55;1.90;99.90
22491;DHT22;11412;50.802;4.350;2023-03-11T07:51:23;2.00;99.90
22491;DHT22;11412;50.802;4.350;2023-03-11T07:53:51;2.00;99.90
22491;DHT22;11412;50.802;4.350;2023-03-11T07:56:18;2.10;99.90
22491;DHT22;11412;50.802;4.350;2023-03-11T07:58:44;2.10;99.90
22491;DHT22;11412;50.802;4.350;2023-03-11T08:01:15;2.20;99.90
22491;DHT22;11412;50.802;4.350;2023-03-11T08:03:42;2.30;99.90
22491;DHT22;11412;50.802;4.350;2023-03-11T08:06:13;2.40;99.90
22491;DHT22;11412;50.802;4.350;2023-03-11T08:08:39;2.60;99.90
22491;DHT22;11412;50.802;4.350;2023-03-11T08:11:04;2.80;99.90
22491;DHT22;11412;50.802;4.350;2023-03-11T08:13:31;3.10;99.90
22491;DHT22;11412;50.802;4.350;2023-03-11T08:15:57;3.10;99.90
22491;DHT22;11412;50.802;4.350;2023-03-11T08:18:23;3.10;99.90
22491;DHT22;11412;50.802;4.350;2023-03-11T08:20:48;3.20;99.90
22491;DHT22;11412;50.802;4.350;2023-03-11T08:23:14;3.70;99.90
22491;DHT22;11412;50.802;4.350;2023-03-11T08:25:40;3.90;99.90
22491;DHT22;11412;50.802;4.350;2023-03-11T08:28:06;3.80;99.90
22491;DHT22;11412;50.802;4.350;2023-03-11T08:30:34;4.10;99.90
22491;DHT22;11412;50.802;4.350;2023-03-11T08:32:59;4.10;99.90
22491;DHT22;11412;50.802;4.350;2023-03-11T08:35:25;4.20;99.90
22491;DHT22;11412;50.802;4.350;2023-03-11T08:37:51;4.70;99.90
22491;DHT22;11412;50.802;4.350;2023-03-11T08:40:17;4.90;99.90
22491;DHT22;11412;50.802;4.350;2023-03-11T08:42:43;5.40;99.90
22491;DHT22;11412;50.802;4.350;2023-03-11T08:45:09;6.00;99.90
22491;DHT22;11412;50.802;4.350;2023-03-11T08:47:36;7.00;99.90
22491;DHT22;11412;50.802;4.350;2023-03-11T08:50:05;8.50;99.90
22491;DHT22;11412;50.802;4.350;2023-03-11T08:52:31;9.90;99.90
22491;DHT22;11412;50.802;4.350;2023-03-11T08:54:57;10.90;99.90
22491;DHT22;11412;50.802;4.350;2023-03-11T08:57:22;12.10;99.90
22491;DHT22;11412;50.802;4.350;2023-03-11T08:59:48;12.50;99.90
22491;DHT22;11412;50.802;4.350;2023-03-11T09:02:13;13.00;99.90
22491;DHT22;11412;50.802;4.350;2023-03-11T09:04:39;14.00;99.90
22491;DHT22;11412;50.802;4.350;2023-03-11T09:07:05;14.50;99.90
22491;DHT22;11412;50.802;4.350;2023-03-11T09:09:31;13.60;99.90
22491;DHT22;11412;50.802;4.350;2023-03-11T09:11:56;13.00;99.90
22491;DHT22;11412;50.802;4.350;2023-03-11T09:14:22;12.30;99.90
22491;DHT22;11412;50.802;4.350;2023-03-11T09:16:48;11.70;99.90
22491;DHT22;11412;50.802;4.350;2023-03-11T09:19:13;11.40;99.90
22491;DHT22;11412;50.802;4.350;2023-03-11T09:21:39;11.20;99.90
22491;DHT22;11412;50.802;4.350;2023-03-11T09:24:05;11.10;99.90
22491;DHT22;11412;50.802;4.350;2023-03-11T09:26:31;11.20;99.90
22491;DHT22;11412;50.802;4.350;2023-03-11T09:28:57;11.60;99.90
22491;DHT22;11412;50.802;4.350;2023-03-11T09:31:23;12.10;99.90
22491;DHT22;11412;50.802;4.350;2023-03-11T09:33:49;12.50;99.90
22491;DHT22;11412;50.802;4.350;2023-03-11T09:36:18;11.90;99.90
22491;DHT22;11412;50.802;4.350;2023-03-11T09:38:45;11.50;99.90
22491;DHT22;11412;50.802;4.350;2023-03-11T09:52:05;9.50;99.90
22491;DHT22;11412;50.802;4.350;2023-03-11T09:54:40;10.10;99.90
22491;DHT22;11412;50.802;4.350;2023-03-11T09:57:13;10.20;99.90
22491;DHT22;11412;50.802;4.350;2023-03-11T09:59:39;10.60;99.90
22491;DHT22;11412;50.802;4.350;2023-03-11T10:02:13;11.00;99.90
22491;DHT22;11412;50.802;4.350;2023-03-11T10:04:44;11.00;99.90
22491;DHT22;11412;50.802;4.350;2023-03-11T10:07:16;10.80;99.90
22491;DHT22;11412;50.802;4.350;2023-03-11T10:09:54;11.10;99.90
22491;DHT22;11412;50.802;4.350;2023-03-11T10:12:27;10.60;99.90
22491;DHT22;11412;50.802;4.350;2023-03-11T10:17:39;10.50;99.90
22491;DHT22;11412;50.802;4.350;2023-03-11T10:28:18;14.60;99.90
22491;DHT22;11412;50.802;4.350;2023-03-11T10:34:01;14.80;99.90
22491;DHT22;11412;50.802;4.350;2023-03-11T10:36:48;12.50;99.90
22491;DHT22;11412;50.802;4.350;2023-03-11T10:39:15;11.50;99.90
22491;DHT22;11412;50.802;4.350;2023-03-11T10:41:45;11.00;99.90
22491;DHT22;11412;50.802;4.350;2023-03-11T10:46:57;11.60;99.90
22491;DHT22;11412;50.802;4.350;2023-03-11T10:49:23;11.10;99.90
22491;DHT22;11412;50.802;4.350;2023-03-11T10:51:51;11.00;99.90
22491;DHT22;11412;50.802;4.350;2023-03-11T10:54:38;10.40;99.90
22491;DHT22;11412;50.802;4.350;2023-03-11T10:57:25;9.90;99.90
22491;DHT22;11412;50.802;4.350;2023-03-11T10:59:57;9.50;99.90
22491;DHT22;11412;50.802;4.350;2023-03-11T11:02:26;9.10;99.90
22491;DHT22;11412;50.802;4.350;2023-03-11T11:07:40;9.30;99.90
22491;DHT22;11412;50.802;4.350;2023-03-11T11:10:25;9.40;99.90
22491;DHT22;11412;50.802;4.350;2023-03-11T11:12:59;9.40;99.90
22491;DHT22;11412;50.802;4.350;2023-03-11T11:15:30;8.80;99.90
22491;DHT22;11412;50.802;4.350;2023-03-11T11:18:02;9.20;99.90
22491;DHT22;11412;50.802;4.350;2023-03-11T11:20:30;9.90;99.90
22491;DHT22;11412;50.802;4.350;2023-03-11T11:22:59;9.90;99.90
22491;DHT22;11412;50.802;4.350;2023-03-11T11:25:28;10.40;99.90
22491;DHT22;11412;50.802;4.350;2023-03-11T11:28:14;10.00;99.90
22491;DHT22;11412;50.802;4.350;2023-03-11T11:33:38;10.50;99.90
22491;DHT22;11412;50.802;4.350;2023-03-11T11:36:05;10.10;99.90
22491;DHT22;11412;50.802;4.350;2023-03-11T11:38:36;9.90;99.90
22491;DHT22;11412;50.802;4.350;2023-03-11T11:41:03;9.70;99.90
22491;DHT22;11412;50.802;4.350;2023-03-11T11:46:37;9.30;99.90
22491;DHT22;11412;50.802;4.350;2023-03-11T11:49:23;9.10;99.90
22491;DHT22;11412;50.802;4.350;2023-03-11T11:56:58;9.80;99.90
22491;DHT22;11412;50.802;4.350;2023-03-11T11:59:25;10.20;99.90
22491;DHT22;11412;50.802;4.350;2023-03-11T12:02:01;10.40;99.90
22491;DHT22;11412;50.802;4.350;2023-03-11T12:13:18;9.60;99.90
22491;DHT22;11412;50.802;4.350;2023-03-11T12:16:15;10.40;99.90
22491;DHT22;11412;50.802;4.350;2023-03-11T12:27:15;10.50;99.90
22491;DHT22;11412;50.802;4.350;2023-03-11T12:29:45;10.80;99.90
22491;DHT22;11412;50.802;4.350;2023-03-11T12:32:29;10.80;99.90
22491;DHT22;11412;50.802;4.350;2023-03-11T12:35:01;10.90;99.90
22491;DHT22;11412;50.802;4.350;2023-03-11T12:37:29;11.10;99.90
22491;DHT22;11412;50.802;4.350;2023-03-11T12:39:55;11.30;99.90
22491;DHT22;11412;50.802;4.350;2023-03-11T12:42:22;11.90;99.90
22491;DHT22;11412;50.802;4.350;2023-03-11T12:44:50;12.10;99.90
22491;DHT22;11412;50.802;4.350;2023-03-11T12:49:45;11.70;99.90
22491;DHT22;11412;50.802;4.350;2023-03-11T12:54:38;11.30;99.90
22491;DHT22;11412;50.802;4.350;2023-03-11T13:00:12;11.20;99.90
22491;DHT22;11412;50.802;4.350;2023-03-11T13:06:04;11.40;99.90
22491;DHT22;11412;50.802;4.350;2023-03-11T13:08:56;11.80;99.90
22491;DHT22;11412;50.802;4.350;2023-03-11T13:16:40;13.00;99.90
22491;DHT22;11412;50.802;4.350;2023-03-11T13:21:57;12.40;99.90
22491;DHT22;11412;50.802;4.350;2023-03-11T13:40:45;12.50;99.90
22491;DHT22;11412;50.802;4.350;2023-03-11T13:43:22;13.00;99.90
22491;DHT22;11412;50.802;4.350;2023-03-11T13:46:01;12.20;99.90
22491;DHT22;11412;50.802;4.350;2023-03-11T13:48:31;11.90;99.90
22491;DHT22;11412;50.802;4.350;2023-03-11T13:51:05;12.30;99.90
22491;DHT22;11412;50.802;4.350;2023-03-11T13:53:56;12.90;99.90
22491;DHT22;11412;50.802;4.350;2023-03-11T13:56:39;12.70;99.90
22491;DHT22;11412;50.802;4.350;2023-03-11T13:59:25;13.30;99.90
22491;DHT22;11412;50.802;4.350;2023-03-11T14:02:17;13.60;99.90
22491;DHT22;11412;50.802;4.350;2023-03-11T14:04:48;13.30;99.90
22491;DHT22;11412;50.802;4.350;2023-03-11T14:07:27;12.90;99.90
22491;DHT22;11412;50.802;4.350;2023-03-11T14:10:20;12.70;99.90
22491;DHT22;11412;50.802;4.350;2023-03-11T14:12:46;11.80;99.90
22491;DHT22;11412;50.802;4.350;2023-03-11T14:15:19;10.90;99.90
22491;DHT22;11412;50.802;4.350;2023-03-11T14:17:45;10.70;99.90
22491;DHT22;11412;50.802;4.350;2023-03-11T14:22:50;11.30;99.90
22491;DHT22;11412;50.802;4.350;2023-03-11T14:25:24;11.10;99.90
22491;DHT22;11412;50.802;4.350;2023-03-11T14:27:55;11.40;99.90
22491;DHT22;11412;50.802;4.350;2023-03-11T14:30:28;11.60;99.90
22491;DHT22;11412;50.802;4.350;2023-03-11T14:33:14;11.80;99.90
22491;DHT22;11412;50.802;4.350;2023-03-11T14:35:51;11.90;99.90
22491;DHT22;11412;50.802;4.350;2023-03-11T14:38:25;11.90;99.90
22491;DHT22;11412;50.802;4.350;2023-03-11T14:40:55;11.20;99.90
22491;DHT22;11412;50.802;4.350;2023-03-11T14:43:21;11.60;99.90
22491;DHT22;11412;50.802;4.350;2023-03-11T14:45:48;12.10;99.90
22491;DHT22;11412;50.802;4.350;2023-03-11T14:48:36;11.90;99.90
22491;DHT22;11412;50.802;4.350;2023-03-11T14:51:06;11.50;99.90
22491;DHT22;11412;50.802;4.350;2023-03-11T14:53:41;11.40;99.90
22491;DHT22;11412;50.802;4.350;2023-03-11T14:56:15;12.20;99.90
22491;DHT22;11412;50.802;4.350;2023-03-11T14:58:46;12.50;99.90
22491;DHT22;11412;50.802;4.350;2023-03-11T15:01:24;12.30;99.90
22491;DHT22;11412;50.802;4.350;2023-03-11T15:06:23;13.00;99.90
22491;DHT22;11412;50.802;4.350;2023-03-11T15:09:05;12.40;99.90
22491;DHT22;11412;50.802;4.350;2023-03-11T15:11:47;12.00;99.90
22491;DHT22;11412;50.802;4.350;2023-03-11T15:16:45;12.90;99.90
22491;DHT22;11412;50.802;4.350;2023-03-11T15:19:31;12.90;99.90
22491;DHT22;11412;50.802;4.350;2023-03-11T15:24:52;12.30;99.90
22491;DHT22;11412;50.802;4.350;2023-03-11T15:27:36;13.00;99.90
22491;DHT22;11412;50.802;4.350;2023-03-11T15:30:14;12.40;99.90
22491;DHT22;11412;50.802;4.350;2023-03-11T15:32:42;12.50;99.90
22491;DHT22;11412;50.802;4.350;2023-03-11T15:37:38;11.90;99.90
22491;DHT22;11412;50.802;4.350;2023-03-11T15:40:28;12.10;99.90
22491;DHT22;11412;50.802;4.350;2023-03-11T15:43:22;11.90;99.90
22491;DHT22;11412;50.802;4.350;2023-03-11T15:45:49;11.10;99.90
22491;DHT22;11412;50.802;4.350;2023-03-11T15:48:18;11.20;99.90
22491;DHT22;11412;50.802;4.350;2023-03-11T15:50:54;10.80;99.90
22491;DHT22;11412;50.802;4.350;2023-03-11T15:53:22;10.50;99.90
22491;DHT22;11412;50.802;4.350;2023-03-11T15:55:48;10.30;99.90
22491;DHT22;11412;50.802;4.350;2023-03-11T15:58:15;10.10;99.90
22491;DHT22;11412;50.802;4.350;2023-03-11T16:00:53;9.90;99.90
22491;DHT22;11412;50.802;4.350;2023-03-11T16:03:20;9.30;99.90
22491;DHT22;11412;50.802;4.350;2023-03-11T16:05:46;8.90;99.90
22491;DHT22;11412;50.802;4.350;2023-03-11T16:08:12;8.70;99.90
22491;DHT22;11412;50.802;4.350;2023-03-11T16:10:38;8.50;99.90
22491;DHT22;11412;50.802;4.350;2023-03-11T16:13:05;8.50;99.90
22491;DHT22;11412;50.802;4.350;2023-03-11T16:15:33;8.50;99.90
22491;DHT22;11412;50.802;4.350;2023-03-11T16:18:01;8.90;99.90
22491;DHT22;11412;50.802;4.350;2023-03-11T16:20:39;8.70;99.90
22491;DHT22;11412;50.802;4.350;2023-03-11T16:23:09;8.60;99.90
22491;DHT22;11412;50.802;4.350;2023-03-11T16:25:38;9.00;99.90
22491;DHT22;11412;50.802;4.350;2023-03-11T16:28:05;9.20;99.90
22491;DHT22;11412;50.802;4.350;2023-03-11T16:30:32;9.50;99.90
22491;DHT22;11412;50.802;4.350;2023-03-11T16:32:58;9.60;99.90
22491;DHT22;11412;50.802;4.350;2023-03-11T16:35:24;9.20;99.90
22491;DHT22;11412;50.802;4.350;2023-03-11T16:37:50;8.80;99.90
22491;DHT22;11412;50.802;4.350;2023-03-11T16:40:19;8.80;99.90
22491;DHT22;11412;50.802;4.350;2023-03-11T16:42:47;8.90;99.90
22491;DHT22;11412;50.802;4.350;2023-03-11T16:45:14;8.80;99.90
22491;DHT22;11412;50.802;4.350;2023-03-11T16:47:40;8.90;99.90
22491;DHT22;11412;50.802;4.350;2023-03-11T16:50:07;8.90;99.90
22491;DHT22;11412;50.802;4.350;2023-03-11T16:52:33;8.70;99.90
22491;DHT22;11412;50.802;4.350;2023-03-11T16:54:58;8.40;99.90
22491;DHT22;11412;50.802;4.350;2023-03-11T16:57:24;8.40;99.90
22491;DHT22;11412;50.802;4.350;2023-03-11T16:59:50;8.50;99.90
22491;DHT22;11412;50.802;4.350;2023-03-11T17:02:16;8.50;99.90
22491;DHT22;11412;50.802;4.350;2023-03-11T17:04:42;8.30;99.90
22491;DHT22;11412;50.802;4.350;2023-03-11T17:07:08;8.50;99.90
22491;DHT22;11412;50.802;4.350;2023-03-11T17:09:34;8.30;99.90
22491;DHT22;11412;50.802;4.350;2023-03-11T17:12:02;8.30;99.90
22491;DHT22;11412;50.802;4.350;2023-03-11T17:14:27;7.90;99.90
22491;DHT22;11412;50.802;4.350;2023-03-11T17:16:54;7.90;99.90
22491;DHT22;11412;50.802;4.350;2023-03-11T17:19:19;7.70;99.90
22491;DHT22;11412;50.802;4.350;2023-03-11T17:21:45;7.60;99.90
22491;DHT22;11412;50.802;4.350;2023-03-11T17:24:11;7.50;99.90
22491;DHT22;11412;50.802;4.350;2023-03-11T17:26:38;7.40;99.90
22491;DHT22;11412;50.802;4.350;2023-03-11T17:29:04;7.30;99.90
22491;DHT22;11412;50.802;4.350;2023-03-11T17:31:29;7.30;99.90
22491;DHT22;11412;50.802;4.350;2023-03-11T17:33:55;7.20;99.90
22491;DHT22;11412;50.802;4.350;2023-03-11T17:36:23;7.00;99.90
22491;DHT22;11412;50.802;4.350;2023-03-11T17:38:51;6.90;99.90
22491;DHT22;11412;50.802;4.350;2023-03-11T17:41:17;7.00;99.90
22491;DHT22;11412;50.802;4.350;2023-03-11T17:43:44;6.80;99.90
22491;DHT22;11412;50.802;4.350;2023-03-11T17:46:13;6.70;99.90
22491;DHT22;11412;50.802;4.350;2023-03-11T17:48:40;6.70;99.90